Time;durP1;ratioP1;P1;durP2;ratioP2;P2;SDS_P1;SDS_P2;PMS_P1;PMS_P2;Temp;Humidity;BMP_temperature;BMP_pressure;BME280_temperature;BME280_humidity;BME280_pressure;Samples;Min_cycle;Max_cycle;Signal;HPM_P1;HPM_P2
2021/07/15 00:02:05;;;;;;;17.88;15.45;;;;;;;19.49;73.45;99724.94;5057222;28;20057;-75
2021/07/15 00:04:31;;;;;;;17.98;14.82;;;;;;;19.47;73.71;99725.03;5053307;28;20573;-76
2021/07/15 00:06:57;;;;;;;20.67;15.07;;;;;;;19.41;73.79;99712.97;5050626;28;20075;-75
2021/07/15 00:09:23;;;;;;;19.50;14.27;;;;;;;19.36;73.69;99720.25;5033919;28;20080;-76
2021/07/15 00:11:49;;;;;;;16.05;13.52;;;;;;;19.32;73.71;99699.34;5050354;28;20187;-74
2021/07/15 00:14:20;;;;;;;24.13;14.25;;;;;;;19.39;74.03;99713.97;5050277;28;20083;-77
2021/07/15 00:16:47;;;;;;;29.50;16.75;;;;;;;19.33;73.98;99704.56;5083398;28;20033;-75
2021/07/15 00:19:15;;;;;;;21.25;14.93;;;;;;;19.36;74.33;99719.38;5050359;28;20064;-76
2021/07/15 00:21:41;;;;;;;19.75;14.27;;;;;;;19.32;74.20;99715.16;5033659;28;20040;-76
2021/07/15 00:24:07;;;;;;;22.00;15.48;;;;;;;19.16;74.27;99691.31;5033927;28;20135;-77
2021/07/15 00:26:33;;;;;;;22.27;17.42;;;;;;;19.27;74.61;99695.16;5050023;28;20509;-76
2021/07/15 00:28:59;;;;;;;23.58;17.65;;;;;;;19.36;74.55;99717.63;5051082;28;20128;-77
2021/07/15 00:31:24;;;;;;;26.13;19.27;;;;;;;19.35;74.96;99715.03;5033525;28;20539;-77
2021/07/15 00:33:50;;;;;;;25.75;19.90;;;;;;;19.40;74.84;99724.47;5050391;28;20508;-76
2021/07/15 00:36:16;;;;;;;24.40;18.95;;;;;;;19.42;75.44;99727.00;5034376;28;20079;-77
2021/07/15 00:38:42;;;;;;;18.48;16.58;;;;;;;19.40;75.36;99713.91;5051797;28;20500;-77
2021/07/15 00:41:08;;;;;;;22.58;18.70;;;;;;;19.41;75.38;99704.19;5051438;28;20060;-77
2021/07/15 00:43:34;;;;;;;22.40;15.98;;;;;;;19.47;75.14;99709.19;5050976;28;20064;-77
2021/07/15 00:46:00;;;;;;;43.60;29.38;;;;;;;19.42;75.09;99719.94;5054751;28;20037;-76
2021/07/15 00:48:26;;;;;;;40.97;25.88;;;;;;;19.35;75.40;99705.34;5050021;28;20045;-77
2021/07/15 00:50:56;;;;;;;45.50;27.02;;;;;;;19.41;75.69;99706.84;5050621;28;20032;-75
2021/07/15 00:53:23;;;;;;;41.78;25.80;;;;;;;19.48;75.83;99702.13;5055312;28;20416;-77
2021/07/15 00:55:50;;;;;;;37.28;25.60;;;;;;;19.56;75.87;99714.00;5053718;28;20092;-76
2021/07/15 00:58:16;;;;;;;52.35;33.80;;;;;;;19.48;75.77;99703.00;5053556;28;20045;-77
2021/07/15 01:00:46;;;;;;;53.67;38.20;;;;;;;19.56;76.01;99715.81;5053625;28;20048;-75
2021/07/15 01:03:13;;;;;;;56.72;43.53;;;;;;;19.54;76.21;99713.22;5055271;28;20041;-78
2021/07/15 01:05:45;;;;;;;52.05;38.38;;;;;;;19.52;76.38;99709.84;5037072;28;20118;-77
2021/07/15 01:08:12;;;;;;;73.57;60.33;;;;;;;19.52;76.57;99707.19;5054275;28;20044;-75
2021/07/15 01:11:00;;;;;;;80.88;71.30;;;;;;;19.54;76.50;99697.41;5063098;28;20067;-76
2021/07/15 01:13:32;;;;;;;111.43;99.70;;;;;;;19.52;76.49;99701.03;5053940;28;20476;-76
2021/07/15 01:16:03;;;;;;;96.18;84.15;;;;;;;19.53;76.71;99700.97;5055180;28;20044;-76
2021/07/15 01:19:01;;;;;;;;;;;;;;;19.51;76.76;99705.47;5037226;28;20045;-76
2021/07/15 01:21:41;;;;;;;66.07;50.97;;;;;;;19.49;76.77;99706.47;5020571;28;19917;-76
2021/07/15 01:24:25;;;;;;;65.18;46.78;;;;;;;19.47;76.81;99701.28;5037201;28;20045;-76
2021/07/15 01:26:57;;;;;;;33.00;28.25;;;;;;;19.45;76.67;99700.50;5057515;28;20047;-77
2021/07/15 01:29:49;;;;;;;37.42;27.88;;;;;;;19.42;76.83;99704.13;5060399;28;20053;-75
2021/07/15 01:32:20;;;;;;;30.75;22.52;;;;;;;19.39;76.64;99690.22;5043606;28;20535;-77
2021/07/15 01:34:47;;;;;;;27.53;22.10;;;;;;;19.36;76.72;99690.34;5055752;28;20048;-74
2021/07/15 01:37:13;;;;;;;28.42;21.60;;;;;;;19.36;76.66;99691.22;5053470;28;20290;-76
2021/07/15 01:39:41;;;;;;;31.48;21.48;;;;;;;19.30;76.72;99677.47;5036764;28;20123;-75
2021/07/15 01:42:12;;;;;;;27.42;20.75;;;;;;;19.35;76.75;99686.00;5036541;28;20040;-76
2021/07/15 01:44:39;;;;;;;27.17;21.23;;;;;;;19.36;76.69;99687.72;5054049;28;20130;-76
2021/07/15 01:47:06;;;;;;;35.40;23.17;;;;;;;19.36;76.69;99687.72;5052273;28;20040;-76
2021/07/15 01:49:32;;;;;;;31.45;22.10;;;;;;;19.33;76.79;99687.88;5035961;28;20037;-77
2021/07/15 01:51:59;;;;;;;33.08;23.08;;;;;;;19.32;76.74;99675.59;5054045;28;20205;-76
2021/07/15 01:54:27;;;;;;;29.70;21.75;;;;;;;19.42;76.74;99690.06;5053673;28;20063;-77
2021/07/15 01:56:54;;;;;;;37.85;22.80;;;;;;;19.37;77.14;99673.59;5054425;28;20127;-75
2021/07/15 01:59:24;;;;;;;33.42;24.13;;;;;;;19.45;76.87;99687.31;5052931;28;20033;-77
2021/07/15 02:01:53;;;;;;;34.65;23.80;;;;;;;19.49;76.47;99690.63;5035069;28;20389;-76
2021/07/15 02:04:19;;;;;;;30.90;22.80;;;;;;;19.46;77.04;99667.03;5035937;28;20059;-77
2021/07/15 02:06:51;;;;;;;33.13;25.88;;;;;;;19.49;76.88;99662.47;5035993;28;20131;-75
2021/07/15 02:09:19;;;;;;;34.13;26.27;;;;;;;19.61;77.04;99676.00;5053458;28;20575;-77
2021/07/15 02:11:50;;;;;;;36.40;24.48;;;;;;;19.68;77.20;99680.91;5053723;28;20037;-76
2021/07/15 02:14:20;;;;;;;42.92;28.80;;;;;;;19.73;77.12;99685.97;5068897;28;20043;-76
2021/07/15 02:16:50;;;;;;;35.30;21.63;;;;;;;19.83;77.34;99689.03;5054677;28;20036;-76
2021/07/15 02:19:17;;;;;;;30.80;20.30;;;;;;;19.76;77.24;99664.69;5061086;28;20412;-76
2021/07/15 02:21:45;;;;;;;36.30;25.55;;;;;;;19.97;76.88;99677.81;5052475;28;20041;-75
2021/07/15 02:24:13;;;;;;;46.33;31.65;;;;;;;20.02;76.70;99681.06;5052089;28;20045;-78
2021/07/15 02:26:41;;;;;;;44.30;29.75;;;;;;;20.10;76.85;99688.59;5054916;28;20036;-75
2021/07/15 02:29:07;;;;;;;44.17;29.20;;;;;;;20.12;76.82;99682.31;5059978;28;20051;-75
2021/07/15 02:31:42;;;;;;;49.50;34.22;;;;;;;20.21;76.36;99691.56;5060350;28;20048;-75
2021/07/15 02:34:15;;;;;;;45.22;31.50;;;;;;;20.19;76.54;99680.22;5054993;28;20043;-76
2021/07/15 02:36:42;;;;;;;34.50;30.75;;;;;;;20.27;76.80;99683.31;5053644;28;20045;-77
2021/07/15 02:39:09;;;;;;;47.08;33.47;;;;;;;20.25;76.55;99676.41;5060017;28;20037;-78
2021/07/15 02:41:36;;;;;;;44.80;33.55;;;;;;;20.41;76.28;99682.59;5052770;28;20044;-77
2021/07/15 02:44:02;;;;;;;42.17;32.88;;;;;;;20.42;76.25;99673.72;5052057;28;20044;-76
2021/07/15 02:46:29;;;;;;;41.72;30.77;;;;;;;20.51;76.50;99698.84;5053374;28;20116;-75
2021/07/15 02:48:55;;;;;;;41.30;27.20;;;;;;;20.60;76.54;99698.34;5051695;28;20136;-78
2021/07/15 02:51:21;;;;;;;37.70;28.42;;;;;;;20.63;76.13;99689.44;5051774;28;20087;-76
2021/07/15 02:53:47;;;;;;;43.42;29.70;;;;;;;20.70;76.16;99689.97;5051589;28;20045;-76
2021/07/15 02:56:26;;;;;;;43.63;27.77;;;;;;;20.81;75.93;99684.13;5053379;28;20094;-77
2021/07/15 02:59:44;;;;;;;43.50;29.83;;;;;;;20.94;75.33;99701.03;5019429;28;20051;-78
2021/07/15 03:02:19;;;;;;;46.10;29.35;;;;;;;20.82;75.24;99688.47;5020432;28;20045;-76
2021/07/15 03:04:56;;;;;;;42.28;29.15;;;;;;;20.80;75.30;99679.78;5035599;28;20405;-77
2021/07/15 03:07:24;;;;;;;40.40;29.00;;;;;;;20.85;75.25;99681.22;5035579;28;20036;-76
2021/07/15 03:09:52;;;;;;;40.35;27.35;;;;;;;21.03;75.63;99684.69;5051709;28;20516;-77
2021/07/15 03:12:23;;;;;;;37.40;26.80;;;;;;;21.07;74.86;99686.19;5052151;28;20041;-79
2021/07/15 03:14:53;;;;;;;38.78;28.70;;;;;;;21.15;74.71;99682.28;5052353;28;20102;-78
2021/07/15 03:17:34;;;;;;;44.38;29.38;;;;;;;21.19;74.78;99678.53;5053713;28;20448;-76
2021/07/15 03:20:13;;;;;;;41.58;27.08;;;;;;;21.27;74.52;99680.75;5053253;28;20117;-78
2021/07/15 03:22:41;;;;;;;39.25;26.20;;;;;;;21.30;74.66;99686.72;5053571;28;20059;-75
2021/07/15 03:25:11;;;;;;;38.97;24.35;;;;;;;21.29;74.12;99673.59;5057321;28;20057;-81
2021/07/15 03:27:43;;;;;;;36.22;22.60;;;;;;;21.43;74.21;99671.03;5058831;28;20032;-81
2021/07/15 03:30:09;;;;;;;35.88;23.73;;;;;;;21.60;74.76;99685.13;5036286;28;20060;-81
2021/07/15 03:32:38;;;;;;;33.75;23.27;;;;;;;21.78;74.00;99686.75;5054252;28;20033;-77
2021/07/15 03:35:05;;;;;;;34.25;24.00;;;;;;;21.88;73.23;99678.25;5054543;28;20462;-79
2021/07/15 03:37:34;;;;;;;30.45;22.55;;;;;;;21.97;73.21;99669.78;5052030;28;20607;-84
2021/07/15 03:40:00;;;;;;;35.10;23.67;;;;;;;22.25;72.81;99692.84;5054788;28;20067;-79
2021/07/15 03:42:28;;;;;;;31.98;20.65;;;;;;;22.37;72.45;99691.25;5054595;28;20177;-83
2021/07/15 03:44:56;;;;;;;30.75;20.17;;;;;;;22.57;72.11;99689.22;5037538;28;20056;-80
2021/07/15 03:47:23;;;;;;;27.73;18.90;;;;;;;22.53;71.71;99659.41;5053708;28;20047;-80
2021/07/15 03:49:50;;;;;;;30.92;19.17;;;;;;;22.71;71.04;99685.75;5053256;28;20052;-81
2021/07/15 03:52:18;;;;;;;28.10;17.77;;;;;;;22.70;70.78;99686.69;5054215;28;20077;-79
2021/07/15 03:54:46;;;;;;;30.17;17.35;;;;;;;22.68;70.45;99691.22;5036019;28;20393;-77
2021/07/15 03:57:15;;;;;;;23.30;16.00;;;;;;;22.68;70.00;99692.09;5035602;28;20075;-79
2021/07/15 03:59:44;;;;;;;25.92;16.13;;;;;;;22.64;69.59;99700.31;5053558;28;20067;-77
2021/07/15 04:02:14;;;;;;;28.08;15.27;;;;;;;22.50;69.77;99674.66;5054857;28;20040;-74
2021/07/15 04:04:44;;;;;;;22.30;15.32;;;;;;;22.71;69.31;99691.06;5053007;28;20041;-76
2021/07/15 04:07:10;;;;;;;26.95;15.95;;;;;;;22.69;69.39;99688.50;5053650;28;20101;-80
2021/07/15 04:09:38;;;;;;;19.80;14.75;;;;;;;22.93;69.15;99701.19;5051388;28;20055;-77
2021/07/15 04:12:06;;;;;;;19.23;14.60;;;;;;;23.07;68.86;99696.81;5051170;28;20041;-75
2021/07/15 04:14:49;;;;;;;17.67;14.32;;;;;;;23.18;68.61;99689.03;5051452;28;20527;-75
2021/07/15 04:17:16;;;;;;;19.60;15.93;;;;;;;23.52;68.11;99701.97;5053091;28;20045;-79
2021/07/15 04:19:44;;;;;;;23.05;15.05;;;;;;;23.91;67.92;99697.69;5035340;28;20044;-78
2021/07/15 04:22:12;;;;;;;17.17;13.80;;;;;;;24.36;67.39;99679.63;5052009;28;20076;-77
2021/07/15 04:24:42;;;;;;;17.55;14.82;;;;;;;24.91;66.18;99687.38;5052884;28;20044;-76
2021/07/15 04:27:09;;;;;;;17.00;14.77;;;;;;;25.09;64.75;99681.69;5059767;28;20115;-76
2021/07/15 04:29:37;;;;;;;15.77;14.13;;;;;;;25.21;64.19;99671.97;5056182;28;20057;-76
2021/07/15 04:32:08;;;;;;;17.50;14.38;;;;;;;25.46;63.08;99679.09;5033945;28;20069;-75
2021/07/15 04:34:36;;;;;;;16.77;14.98;;;;;;;25.71;62.82;99677.25;5041259;28;20045;-74
2021/07/15 04:37:04;;;;;;;19.15;14.82;;;;;;;25.73;62.16;99646.03;5035182;28;20047;-76
2021/07/15 04:39:30;;;;;;;16.80;14.82;;;;;;;26.12;61.69;99668.00;5033845;28;20043;-77
2021/07/15 04:42:00;;;;;;;15.98;13.65;;;;;;;26.40;60.53;99671.19;5050862;28;20041;-77
2021/07/15 04:44:33;;;;;;;18.60;14.15;;;;;;;26.41;59.60;99664.06;5050753;28;20106;-79
2021/07/15 04:47:01;;;;;;;21.83;15.85;;;;;;;26.38;59.41;99648.28;5051156;28;20127;-76
2021/07/15 04:49:31;;;;;;;17.90;14.82;;;;;;;26.64;59.20;99662.25;5035649;28;20141;-77
2021/07/15 04:51:58;;;;;;;18.98;15.65;;;;;;;26.71;58.80;99658.13;5034591;28;20048;-77
2021/07/15 04:54:25;;;;;;;17.17;14.30;;;;;;;26.91;58.71;99661.06;5052571;28;20040;-77
2021/07/15 04:56:51;;;;;;;19.77;15.05;;;;;;;27.12;57.94;99649.63;5050394;28;20057;-75
2021/07/15 04:59:18;;;;;;;18.23;14.95;;;;;;;27.32;56.82;99661.38;5050339;28;20040;-77
2021/07/15 05:01:44;;;;;;;24.75;15.45;;;;;;;27.48;56.89;99656.50;5051939;28;20067;-76
2021/07/15 05:04:10;;;;;;;22.00;14.32;;;;;;;27.66;56.31;99645.25;5051724;28;20172;-75
2021/07/15 05:06:36;;;;;;;16.48;13.93;;;;;;;27.92;55.49;99651.09;5052113;28;20056;-78
2021/07/15 05:09:03;;;;;;;18.88;14.52;;;;;;;27.96;54.69;99643.69;5052594;28;20037;-79
2021/07/15 05:11:29;;;;;;;16.33;14.15;;;;;;;28.03;54.48;99638.66;5033225;28;20041;-76
2021/07/15 05:13:55;;;;;;;15.52;13.90;;;;;;;28.25;54.42;99654.59;5037936;28;20052;-75
2021/07/15 05:16:23;;;;;;;16.80;14.50;;;;;;;28.37;53.07;99646.47;5051369;28;20049;-78
2021/07/15 05:18:49;;;;;;;19.17;14.02;;;;;;;28.44;53.31;99626.25;5051436;28;20048;-77
2021/07/15 05:21:14;;;;;;;19.10;14.93;;;;;;;28.41;52.64;99626.50;5034588;28;20041;-76
2021/07/15 05:23:40;;;;;;;18.08;14.65;;;;;;;28.55;52.66;99639.56;5052532;28;20048;-75
2021/07/15 05:26:06;;;;;;;23.23;15.10;;;;;;;28.74;52.35;99642.44;5052494;28;20076;-77
2021/07/15 05:28:32;;;;;;;19.25;15.38;;;;;;;28.97;51.92;99645.81;5068781;28;20044;-76
2021/07/15 05:30:58;;;;;;;16.88;15.05;;;;;;;29.05;51.42;99640.59;5067561;28;20116;-76
2021/07/15 05:33:24;;;;;;;16.33;14.63;;;;;;;29.15;51.03;99637.94;5069058;28;20065;-77
2021/07/15 05:35:50;;;;;;;20.92;15.13;;;;;;;29.14;50.03;99642.44;5069591;28;20043;-76
2021/07/15 05:38:16;;;;;;;18.60;15.48;;;;;;;28.98;50.52;99601.97;5074379;28;20055;-75
2021/07/15 05:40:42;;;;;;;19.60;15.40;;;;;;;29.40;50.40;99638.44;5066229;28;20037;-77
2021/07/15 05:43:09;;;;;;;23.45;16.05;;;;;;;29.41;49.80;99632.94;5061050;28;20044;-77
2021/07/15 05:45:35;;;;;;;18.67;15.60;;;;;;;29.57;50.12;99628.84;5058031;28;20049;-76
2021/07/15 05:48:00;;;;;;;18.55;15.23;;;;;;;29.99;49.61;99625.06;5059612;28;20036;-76
2021/07/15 05:50:27;;;;;;;25.45;14.85;;;;;;;30.44;49.24;99624.38;5057616;28;20396;-77
2021/07/15 05:52:53;;;;;;;21.38;15.60;;;;;;;31.40;48.82;99616.97;5059501;28;20504;-78
2021/07/15 05:55:19;;;;;;;14.38;12.38;;;;;;;32.85;46.52;99612.13;5061917;28;20102;-79
2021/07/15 05:57:45;;;;;;;16.45;12.38;;;;;;;34.59;43.19;99608.59;5061650;28;20131;-77
2021/07/15 06:00:12;;;;;;;14.15;12.05;;;;;;;36.14;40.16;99602.34;5062260;28;20116;-78
2021/07/15 06:02:38;;;;;;;13.90;12.30;;;;;;;37.79;37.36;99603.81;5072395;28;20040;-76
2021/07/15 06:05:04;;;;;;;14.18;11.90;;;;;;;39.13;34.37;99603.75;5055740;28;20132;-75
2021/07/15 06:07:30;;;;;;;14.63;11.95;;;;;;;40.19;32.05;99596.66;5055038;28;20056;-78
2021/07/15 06:09:56;;;;;;;18.20;12.50;;;;;;;41.09;30.33;99608.72;5046587;28;20045;-79
2021/07/15 06:12:22;;;;;;;15.07;10.57;;;;;;;42.15;28.79;99599.88;5036495;28;20505;-79
2021/07/15 06:14:48;;;;;;;13.63;11.32;;;;;;;43.05;27.09;99591.25;5049177;28;20082;-76
2021/07/15 06:17:16;;;;;;;15.23;10.70;;;;;;;43.96;25.67;99592.97;5037711;28;20127;-77
2021/07/15 06:19:42;;;;;;;13.95;12.05;;;;;;;44.62;24.31;99594.66;5054143;28;20548;-78
2021/07/15 06:22:07;;;;;;;19.00;11.18;;;;;;;45.19;23.35;99596.53;5055290;28;20060;-76
2021/07/15 06:24:34;;;;;;;16.45;11.15;;;;;;;45.54;22.97;99598.25;5024235;28;20481;-78
2021/07/15 06:26:59;;;;;;;17.38;11.23;;;;;;;46.16;22.02;99590.97;5049866;28;20045;-75
2021/07/15 06:29:30;;;;;;;17.45;11.68;;;;;;;46.75;21.00;99600.47;5068508;28;20052;-78
2021/07/15 06:31:56;;;;;;;16.35;11.30;;;;;;;46.55;20.60;99592.00;5069430;28;20037;-76
2021/07/15 06:34:22;;;;;;;14.05;10.77;;;;;;;47.04;20.27;99594.72;5055582;28;20127;-79
2021/07/15 06:36:48;;;;;;;16.80;10.55;;;;;;;47.33;19.53;99590.88;5054398;28;20041;-77
2021/07/15 06:39:14;;;;;;;18.63;10.50;;;;;;;47.46;18.72;99576.63;5087166;28;20453;-78
2021/07/15 06:41:40;;;;;;;19.48;10.55;;;;;;;47.95;19.26;99580.31;5054232;28;20105;-79
2021/07/15 06:44:07;;;;;;;13.05;9.90;;;;;;;48.80;18.08;99576.50;5055732;28;20076;-77
2021/07/15 06:46:33;;;;;;;13.48;9.90;;;;;;;48.67;17.67;99588.03;5054821;28;20036;-79
2021/07/15 06:49:00;;;;;;;13.35;9.82;;;;;;;48.32;17.59;99584.94;5042025;28;20102;-77
2021/07/15 06:51:26;;;;;;;13.88;8.73;;;;;;;49.14;16.66;99584.28;5038397;28;20048;-76
2021/07/15 06:53:52;;;;;;;11.70;9.52;;;;;;;49.95;15.97;99577.28;5053894;28;20512;-78
2021/07/15 06:56:19;;;;;;;14.60;10.07;;;;;;;50.72;15.60;99576.13;5053273;28;20051;-79
2021/07/15 06:58:45;;;;;;;12.05;9.95;;;;;;;51.22;14.37;99581.59;5054050;28;20037;-77
2021/07/15 07:01:11;;;;;;;13.70;10.63;;;;;;;51.18;14.59;99578.56;5060563;28;20112;-78
2021/07/15 07:03:37;;;;;;;20.67;10.18;;;;;;;51.13;14.43;99575.84;5060033;28;20489;-76
2021/07/15 07:06:03;;;;;;;13.40;9.35;;;;;;;51.70;13.82;99578.13;5058079;28;20045;-79
2021/07/15 07:08:30;;;;;;;14.25;10.05;;;;;;;51.15;14.17;99561.72;5056323;28;20041;-76
2021/07/15 07:10:55;;;;;;;15.07;9.48;;;;;;;51.72;13.95;99558.41;5019540;28;20044;-76
2021/07/15 07:13:21;;;;;;;12.10;9.57;;;;;;;52.23;13.31;99568.06;5019966;28;20045;-78
2021/07/15 07:15:48;;;;;;;10.27;8.98;;;;;;;52.81;12.74;99568.94;5055368;28;20099;-78
2021/07/15 07:18:13;;;;;;;16.75;10.38;;;;;;;53.06;12.80;99575.25;5054481;28;20045;-77
2021/07/15 07:20:40;;;;;;;13.00;10.30;;;;;;;53.33;12.63;99582.00;5054423;28;20044;-78
2021/07/15 07:23:07;;;;;;;15.10;10.43;;;;;;;53.48;12.06;99576.16;5054294;28;20047;-78
2021/07/15 07:25:33;;;;;;;14.48;9.98;;;;;;;53.71;12.28;99582.69;5053104;28;20044;-78
2021/07/15 07:27:59;;;;;;;12.57;9.48;;;;;;;54.10;11.81;99572.19;5070222;28;20045;-75
2021/07/15 07:30:25;;;;;;;14.35;10.18;;;;;;;54.09;11.93;99581.66;5019585;28;20044;-80
2021/07/15 07:32:51;;;;;;;11.38;9.52;;;;;;;53.25;12.03;99545.44;5053938;28;20048;-78
2021/07/15 07:35:17;;;;;;;10.52;8.77;;;;;;;53.60;11.92;99564.56;5053073;28;20098;-77
2021/07/15 07:37:45;;;;;;;13.23;9.35;;;;;;;53.81;11.97;99567.75;5053172;28;20045;-78
2021/07/15 07:40:12;;;;;;;13.68;8.45;;;;;;;54.12;11.57;99563.53;5052298;28;20044;-76
2021/07/15 07:42:38;;;;;;;13.88;8.18;;;;;;;54.64;10.86;99558.50;5053333;28;20047;-80
2021/07/15 07:45:07;;;;;;;8.93;8.05;;;;;;;55.19;11.07;99558.53;5051792;28;20086;-76
2021/07/15 07:47:33;;;;;;;11.82;8.43;;;;;;;55.51;10.38;99560.19;5050718;28;20052;-76
2021/07/15 07:49:58;;;;;;;11.25;8.38;;;;;;;54.84;11.03;99558.31;5051295;28;20079;-77
2021/07/15 07:52:24;;;;;;;9.10;8.15;;;;;;;55.14;10.45;99550.31;5051619;28;20068;-77
2021/07/15 07:54:51;;;;;;;10.90;8.88;;;;;;;54.71;10.92;99552.47;5053566;28;20386;-78
2021/07/15 07:57:16;;;;;;;9.32;8.20;;;;;;;54.57;10.84;99546.94;5057503;28;20041;-77
2021/07/15 07:59:43;;;;;;;8.70;8.00;;;;;;;54.62;10.96;99544.06;5051092;28;20044;-77
2021/07/15 08:02:09;;;;;;;9.00;8.25;;;;;;;53.86;12.19;99548.19;5051599;28;20041;-77
2021/07/15 08:04:35;;;;;;;10.13;8.40;;;;;;;53.21;12.21;99533.28;5050682;28;20504;-76
2021/07/15 08:07:02;;;;;;;10.45;9.40;;;;;;;53.00;12.35;99536.44;5050083;28;20041;-77
2021/07/15 08:09:30;;;;;;;9.43;8.35;;;;;;;53.78;11.95;99523.88;5026980;28;20044;-78
2021/07/15 08:11:56;;;;;;;12.18;8.60;;;;;;;54.72;11.22;99537.41;5030712;28;20045;-77
2021/07/15 08:14:23;;;;;;;10.02;9.00;;;;;;;54.30;11.24;99528.38;5040926;28;20068;-76
2021/07/15 08:16:50;;;;;;;11.15;8.57;;;;;;;53.98;11.38;99531.00;5050820;28;20048;-78
2021/07/15 08:19:17;;;;;;;11.88;8.52;;;;;;;54.42;11.04;99523.06;5052213;28;20041;-80
2021/07/15 08:21:43;;;;;;;9.20;8.30;;;;;;;55.08;10.57;99530.94;5052085;28;20053;-80
2021/07/15 08:24:10;;;;;;;9.38;8.55;;;;;;;54.81;10.92;99523.56;5052121;28;20067;-78
2021/07/15 08:26:36;;;;;;;9.32;8.55;;;;;;;54.54;10.88;99525.31;5050718;28;20048;-78
2021/07/15 08:29:02;;;;;;;8.32;7.63;;;;;;;54.25;10.97;99525.69;5033633;28;20131;-78
2021/07/15 08:31:28;;;;;;;8.65;7.78;;;;;;;55.04;10.44;99518.81;5051441;28;20049;-77
2021/07/15 08:33:54;;;;;;;8.30;7.68;;;;;;;55.95;9.91;99526.91;5050707;28;20048;-77
2021/07/15 08:36:20;;;;;;;8.60;7.80;;;;;;;56.19;10.02;99519.22;5034545;28;20048;-78
2021/07/15 08:38:47;;;;;;;9.15;8.38;;;;;;;56.07;9.51;99522.66;5051228;28;20158;-77
2021/07/15 08:41:13;;;;;;;9.75;8.63;;;;;;;54.90;9.82;99515.25;5051178;28;20574;-78
2021/07/15 08:43:39;;;;;;;8.25;7.50;;;;;;;54.46;10.87;99526.88;5053011;28;20071;-78
2021/07/15 08:46:06;;;;;;;7.93;7.28;;;;;;;54.38;10.65;99499.81;5051778;28;20446;-77
2021/07/15 08:48:33;;;;;;;8.32;7.53;;;;;;;55.29;10.21;99498.97;5050505;28;20033;-77
2021/07/15 08:51:00;;;;;;;8.27;7.65;;;;;;;55.89;9.46;99510.63;5050342;28;20048;-77
2021/07/15 08:53:27;;;;;;;9.65;6.80;;;;;;;56.37;9.18;99497.75;5051552;28;20539;-78
2021/07/15 08:58:39;;;;;;;8.75;7.85;;;;;;;56.97;9.18;99489.63;5052118;28;20033;-76
2021/07/15 09:01:05;;;;;;;8.35;7.35;;;;;;;57.33;9.48;99485.56;5054799;28;20170;-77
2021/07/15 09:03:36;;;;;;;10.07;8.38;;;;;;;57.31;9.11;99496.25;5055023;28;20040;-76
2021/07/15 09:06:02;;;;;;;9.57;8.73;;;;;;;56.46;9.48;99501.34;5038687;28;20129;-78
2021/07/15 09:08:32;;;;;;;9.57;8.63;;;;;;;55.43;9.53;99499.66;5033072;28;20048;-75
2021/07/15 09:11:02;;;;;;;11.55;8.60;;;;;;;55.30;10.12;99481.91;5014509;28;20041;-77
2021/07/15 09:13:29;;;;;;;8.75;7.95;;;;;;;55.98;9.44;99473.25;5020037;28;20068;-77
2021/07/15 09:15:56;;;;;;;9.68;8.77;;;;;;;56.20;9.55;99471.44;5037228;28;20051;-77
2021/07/15 09:18:21;;;;;;;9.95;8.10;;;;;;;55.02;10.50;99459.84;5053483;28;20040;-75
2021/07/15 09:20:47;;;;;;;10.05;8.43;;;;;;;55.58;9.75;99470.56;5054807;28;20139;-78
2021/07/15 09:23:15;;;;;;;10.18;9.20;;;;;;;55.47;10.25;99460.84;5055100;28;20041;-77
2021/07/15 09:25:46;;;;;;;8.55;7.80;;;;;;;55.28;10.00;99464.72;5053500;28;20048;-79
2021/07/15 09:28:14;;;;;;;9.40;8.35;;;;;;;55.53;9.45;99448.38;5054534;28;20068;-77
2021/07/15 09:30:44;;;;;;;11.18;8.20;;;;;;;54.69;9.84;99443.41;5053361;28;20057;-77
2021/07/15 09:33:12;;;;;;;11.85;8.13;;;;;;;52.79;10.73;99430.44;5054000;28;20071;-76
2021/07/15 09:35:45;;;;;;;11.95;7.65;;;;;;;50.61;11.88;99415.75;5037107;28;20079;-76
2021/07/15 09:38:21;;;;;;;11.95;8.68;;;;;;;49.05;13.28;99420.31;5020529;28;20064;-79
2021/07/15 09:40:59;;;;;;;;;;;;;;;48.51;13.71;99428.03;5053785;28;20113;-78
2021/07/15 09:43:32;;;;;;;11.20;7.55;;;;;;;48.52;13.55;99421.41;5054600;28;19975;-78
2021/07/15 09:46:01;;;;;;;7.85;6.85;;;;;;;49.14;13.54;99415.06;5053657;28;20044;-76
2021/07/15 09:48:28;;;;;;;;;;;;;;;50.68;12.71;99409.88;5054667;28;20092;-77
2021/07/15 09:50:56;;;;;;;10.50;7.70;;;;;;;51.57;11.90;99402.31;5053510;28;19920;-76
2021/07/15 09:53:33;;;;;;;9.35;7.07;;;;;;;50.60;12.62;99397.50;5054870;28;20041;-79
2021/07/15 09:56:09;;;;;;;8.73;7.97;;;;;;;51.45;11.75;99399.09;5053847;28;20419;-77
2021/07/15 09:58:42;;;;;;;8.07;7.20;;;;;;;52.05;11.49;99386.69;5053563;28;20127;-77
2021/07/15 10:01:20;;;;;;;8.90;8.10;;;;;;;52.59;10.86;99389.16;5053473;28;20564;-77
2021/07/15 10:03:48;;;;;;;7.68;7.03;;;;;;;53.14;10.72;99397.63;5053703;28;20040;-77
2021/07/15 10:06:15;;;;;;;10.60;8.40;;;;;;;53.26;10.80;99405.44;5053972;28;20040;-77
2021/07/15 10:08:43;;;;;;;8.73;7.65;;;;;;;52.82;10.82;99401.28;5055536;28;20068;-76
2021/07/15 10:11:26;;;;;;;8.45;7.65;;;;;;;53.39;10.34;99397.41;5038230;28;20041;-77
2021/07/15 10:14:01;;;;;;;8.93;7.38;;;;;;;53.82;10.11;99399.81;5044332;28;20095;-78
2021/07/15 10:16:33;;;;;;;8.68;7.28;;;;;;;54.13;9.81;99388.00;5055192;28;20041;-77
2021/07/15 10:19:00;;;;;;;7.90;7.20;;;;;;;53.93;9.90;99386.50;5052384;28;20489;-78
2021/07/15 10:21:31;;;;;;;10.80;8.88;;;;;;;52.97;10.35;99380.75;5053565;28;20044;-77
2021/07/15 10:23:58;;;;;;;11.02;9.60;;;;;;;51.86;11.12;99383.91;5052499;28;20445;-77
2021/07/15 10:26:25;;;;;;;9.10;7.07;;;;;;;51.57;11.17;99384.84;5053152;28;20033;-79
2021/07/15 10:28:52;;;;;;;7.90;7.30;;;;;;;51.55;10.69;99387.06;5053055;28;20175;-77
2021/07/15 10:31:20;;;;;;;10.93;7.15;;;;;;;51.25;11.09;99389.13;5053790;28;20049;-79
2021/07/15 10:33:47;;;;;;;8.82;7.13;;;;;;;50.11;11.51;99381.78;5053291;28;20041;-77
2021/07/15 10:36:14;;;;;;;12.57;6.97;;;;;;;48.44;12.65;99394.41;5036930;28;20037;-79
2021/07/15 10:38:45;;;;;;;9.82;7.07;;;;;;;47.13;13.87;99371.28;5053512;28;20501;-79
2021/07/15 10:41:13;;;;;;;19.15;7.47;;;;;;;46.07;14.26;99383.63;5052894;28;20036;-76
2021/07/15 10:43:40;;;;;;;10.63;7.47;;;;;;;45.11;14.80;99378.25;5052811;28;20041;-78
2021/07/15 10:46:07;;;;;;;8.85;6.90;;;;;;;44.02;15.93;99389.28;5053444;28;20039;-76
2021/07/15 10:48:34;;;;;;;11.60;6.68;;;;;;;43.14;17.00;99372.88;5053776;28;20067;-78
2021/07/15 10:51:01;;;;;;;8.27;7.47;;;;;;;42.28;17.30;99366.66;5053317;28;20095;-77
2021/07/15 10:53:35;;;;;;;24.58;8.20;;;;;;;41.13;19.00;99395.53;5054510;28;20396;-79
2021/07/15 10:56:02;;;;;;;30.70;7.97;;;;;;;39.75;20.43;99408.47;5055354;28;20037;-76
2021/07/15 10:58:44;;;;;;;23.65;5.93;;;;;;;38.76;21.61;99429.22;5057384;28;20140;-75
2021/07/15 11:01:32;;;;;;;15.10;5.70;;;;;;;37.81;22.98;99426.19;5038454;28;20123;-78
2021/07/15 11:04:16;;;;;;;18.40;5.30;;;;;;;37.00;22.91;99430.22;5055961;28;20032;-76
2021/07/15 11:06:50;;;;;;;18.25;5.28;;;;;;;36.00;23.91;99417.25;5052946;28;20401;-75
2021/07/15 11:09:35;;;;;;;14.60;5.80;;;;;;;35.41;24.80;99445.06;5047304;28;20543;-74
2021/07/15 11:12:04;;;;;;;12.93;5.32;;;;;;;34.75;25.78;99453.72;5032249;28;20520;-76
2021/07/15 11:14:39;;;;;;;25.48;5.82;;;;;;;34.01;26.85;99454.94;5043232;28;20190;-76
2021/07/15 11:17:21;;;;;;;9.27;5.65;;;;;;;33.30;28.03;99451.00;5052098;28;20397;-76
2021/07/15 11:19:59;;;;;;;9.30;5.60;;;;;;;32.85;28.47;99458.59;5060634;28;20033;-77
2021/07/15 11:22:43;;;;;;;13.82;5.82;;;;;;;32.32;29.32;99457.09;5053819;28;20067;-77
2021/07/15 11:25:15;;;;;;;12.15;5.32;;;;;;;31.95;30.05;99469.84;5052655;28;20052;-76
2021/07/15 11:28:06;;;;;;;11.68;5.22;;;;;;;31.45;30.43;99468.69;5052638;28;20191;-77
2021/07/15 11:30:35;;;;;;;12.38;4.68;;;;;;;31.01;31.64;99493.63;5010287;28;20049;-77
2021/07/15 11:33:10;;;;;;;7.60;3.97;;;;;;;30.70;32.79;99507.44;5032434;28;20500;-74